Mount Aukum, California
Current Conditions -  °F | °C
As of 11:15 PM on Saturday 25 Oct 2014 (Local Time) from KPVF Reporting Station
Broken Clouds Broken Clouds  
Wind Chill: 50°   Ceiling: 800
Heat Index: 50°   Visibility: 10mi
Dew Point: 46°   Wind: 3mph
Humidity: 87%   Direction: 120°ESE
Pressure: 30.18"   Gusts: NA
Location:  38.55°N, 120.73°W
Report Text: KPVF 260615Z AUTO 12003KT 10SM BKN008 BKN041 BKN049 10/08 A3018 RMK AO1
Loading
Personal Weather Stations






























Interactive Weather Map
Tropical Storm Tracking
New forecast layout! Learn more

10-Day Weather Forecast

Advertisements
Track Severe Weather on mobile